INFORMACIÓN METAR y TAF
METAR FOR LSGG
ADDS - METARS form results

(0946 UTC 15 November 2019)
Data provider http://aviationweather.gov/metar/data/
 
METAR text: LSGG 150920Z 21009KT 9999 FEW015 05/02 Q1000 NOSIG
Conditions at: LSGG (GENEVA/COINTRIN , CH) observed 0920 UTC 15 November 2019
Temperature: 5.0°C (41°F)
Dewpoint: 2.0°C (36°F) [RH = 81%]
Pressure (altimeter): 29.53 inches Hg (1000.0 mb)
Winds: from the SSW (210 degrees) at 10 MPH (9 knots; 4.6 m/s)
Visibility: 6 or more miles (10+ km)
Ceiling: at least 12,000 feet AGL
Clouds: few clouds at 1500 feet AGL
Weather: no significant weather observed at this time

METAR text: LSGG 150850Z 19008KT 170V230 9999 FEW015 05/02 Q1000 NOSIG
Conditions at: LSGG (GENEVA/COINTRIN , CH) observed 0850 UTC 15 November 2019
Temperature: 5.0°C (41°F)
Dewpoint: 2.0°C (36°F) [RH = 81%]
Pressure (altimeter): 29.53 inches Hg (1000.0 mb)
Winds: from the S (190 degrees) at 9 MPH (8 knots; 4.1 m/s)
Visibility: 6 or more miles (10+ km)
Ceiling: at least 12,000 feet AGL
Clouds: few clouds at 1500 feet AGL
Weather: no significant weather observed at this time

Forecast for: LSGG (GENEVA/COINTRIN , CH)
Text: TAF LSGG 150825Z 1509/1615 23008KT 9999 FEW030 TX06/1514Z TN02/1606Z TX06/1614Z
Forecast period: 0900 UTC 15 November 2019 to 1500 UTC 16 November 2019
Forecast type: FROM: standard forecast or significant change
Winds: from the SW (230 degrees) at 9 MPH (8 knots; 4.1 m/s)
Visibility: 6 or more miles 10+ km)
Ceiling: at least 12,000 feet AGL
Clouds: few clouds at 3000 feet AGL
Weather: no significant weather forecast for this period
Text: PROB40
Forecast period: 0300 to 0800 UTC 16 November 2019
Forecast type: TEMPORARY: The following changes expected for less than half the time period
Visibility: 0.93 miles (1.50 km)
Ceiling: 1400 feet AGL
Clouds: broken clouds at 1400 feet AGL
Weather: BCFG  (patches of fog)

 MAPA DE AEROPUERTO

 INFORMACIÓN DE PISTA
Pista 05 Longitud 12795 ft Ancho 164 ft
Elevación 1411 ft Umbral desplazado 1082 ft Rumbo de pista 46
Pista 23 Longitud 12795 ft Ancho 164 ft
Elevación 1365 ft Umbral desplazado 0 ft Rumbo de pista 226
Pista 05L Longitud 2700 ft Ancho 98 ft
Elevación 1378 ft Umbral desplazado 613 ft Rumbo de pista 46
Pista 23R Longitud 2700 ft Ancho 98 ft
Elevación 1393 ft Umbral desplazado 994 ft Rumbo de pista 226

 FRECUANCIAS DEL AEROPUERTO
Tipo APP Nombre APP Frecuencia 120.3 MHZ
Tipo ARR Nombre ARR Frecuencia 136.25 MHZ
Tipo ATIS Nombre ATIS Frecuencia 135.575 MHZ
Tipo DEP Nombre DEP Frecuencia 119.525 MHZ
Tipo GND Nombre GND Frecuencia 121.675 MHZ
Tipo GTE Nombre APN Frecuencia 121.75 MHZ
Tipo TWR Nombre TWR Frecuencia 118.7 MHZ

 RADIO AYUDAS DEL AEROPUERTO
Tipo NDB Nombre Gland Frecuencia 375 KHZ
Tipo VOR-DME Nombre Geneva Cointrin Frecuencia 115750 KHZ
Tipo VOR-DME Nombre Passeiry Frecuencia 116600 KHZ



Powered by Virtual Airlines Manager [v2.6.2]